Time;durP1;ratioP1;P1;durP2;ratioP2;P2;SDS_P1;SDS_P2;PMS_P1;PMS_P2;Temp;Humidity;BMP_temperature;BMP_pressure;BME280_temperature;BME280_humidity;BME280_pressure;Samples;Min_cycle;Max_cycle;Signal;HPM_P1;HPM_P2
2023/05/01 00:02:04;;;;;;;8.45;3.17;;;;;;;;;;5061209;28;20436;-80
2023/05/01 00:04:33;;;;;;;7.90;3.30;;;;;;;;;;5059856;28;20417;-83
2023/05/01 00:07:06;;;;;;;8.45;3.25;;;;;;;;;;5060745;28;20432;-82
2023/05/01 00:09:33;;;;;;;7.95;3.35;;;;;;;;;;5059257;28;20417;-81
2023/05/01 00:12:02;;;;;;;7.80;3.20;;;;;;;;;;5059307;28;20430;-81
2023/05/01 00:14:35;;;;;;;8.40;3.25;;;;;;;;;;5063428;28;20425;-81
2023/05/01 00:17:09;;;;;;;7.90;2.90;;;;;;;;;;5062329;28;20458;-81
2023/05/01 00:19:42;;;;;;;7.93;3.13;;;;;;;;;;5068727;28;20422;-82
2023/05/01 00:22:10;;;;;;;9.88;3.38;;;;;;;;;;5059839;28;20434;-82
2023/05/01 00:24:37;;;;;;;7.28;3.00;;;;;;;;;;5058894;28;20425;-82
2023/05/01 00:27:10;;;;;;;12.70;3.00;;;;;;;;;;5062216;28;20907;-82
2023/05/01 00:29:43;;;;;;;7.20;3.30;;;;;;;;;;5075201;28;20417;-81
2023/05/01 00:32:13;;;;;;;9.45;3.30;;;;;;;;;;5062066;28;20429;-82
2023/05/01 00:34:41;;;;;;;7.60;3.25;;;;;;;;;;5056810;28;20480;-82
2023/05/01 00:37:09;;;;;;;7.95;3.17;;;;;;;;;;5078498;28;20429;-82
2023/05/01 00:39:37;;;;;;;8.10;3.20;;;;;;;;;;5064345;28;20405;-82
2023/05/01 00:42:05;;;;;;;7.68;3.10;;;;;;;;;;5058845;28;20785;-82
2023/05/01 00:44:33;;;;;;;8.85;3.78;;;;;;;;;;5061560;28;20952;-82
2023/05/01 00:47:03;;;;;;;7.25;3.10;;;;;;;;;;5054935;28;20436;-82
2023/05/01 00:49:37;;;;;;;8.65;3.28;;;;;;;;;;5062374;28;20416;-81
2023/05/01 00:52:05;;;;;;;8.07;3.17;;;;;;;;;;5060143;28;20428;-82
2023/05/01 00:54:32;;;;;;;7.88;3.22;;;;;;;;;;5057554;28;20431;-83
2023/05/01 00:57:00;;;;;;;8.57;3.42;;;;;;;;;;5059833;28;20804;-82
2023/05/01 00:59:28;;;;;;;7.70;2.90;;;;;;;;;;5058014;28;20763;-83
2023/05/01 01:02:01;;;;;;;7.07;3.22;;;;;;;;;;5060308;28;20428;-82
2023/05/01 01:04:34;;;;;;;7.95;3.47;;;;;;;;;;5053129;28;20420;-82
2023/05/01 01:07:08;;;;;;;8.07;3.25;;;;;;;;;;5059246;28;20428;-82
2023/05/01 01:09:42;;;;;;;8.32;3.30;;;;;;;;;;5059433;28;20440;-82
2023/05/01 01:12:24;;;;;;;7.75;3.22;;;;;;;;;;5063876;28;20439;-81
2023/05/01 01:14:59;;;;;;;6.40;2.92;;;;;;;;;;5064067;28;20438;-81
2023/05/01 01:17:30;;;;;;;9.23;3.30;;;;;;;;;;5065790;28;20428;-82
2023/05/01 01:20:10;;;;;;;6.88;2.83;;;;;;;;;;5060392;28;20728;-83
2023/05/01 01:22:47;;;;;;;7.88;3.00;;;;;;;;;;5057198;28;20460;-83
2023/05/01 01:25:29;;;;;;;7.63;3.20;;;;;;;;;;5062179;28;21072;-83
2023/05/01 01:28:15;;;;;;;7.53;3.10;;;;;;;;;;5052857;28;20426;-84
2023/05/01 01:31:06;;;;;;;8.40;3.17;;;;;;;;;;5046905;28;20437;-82
2023/05/01 01:34:00;;;;;;;9.00;3.20;;;;;;;;;;5045810;28;20432;-82
2023/05/01 01:36:36;;;;;;;8.82;3.25;;;;;;;;;;5056874;28;20415;-82
2023/05/01 01:39:08;;;;;;;8.68;3.40;;;;;;;;;;5057102;28;20944;-82
2023/05/01 01:41:36;;;;;;;8.77;3.20;;;;;;;;;;5077972;28;20547;-82
2023/05/01 01:44:09;;;;;;;8.15;3.25;;;;;;;;;;5054125;28;20444;-82
2023/05/01 01:46:42;;;;;;;9.27;3.60;;;;;;;;;;5064583;28;20429;-82
2023/05/01 01:49:18;;;;;;;6.55;3.22;;;;;;;;;;5062307;28;20426;-82
2023/05/01 01:51:51;;;;;;;7.78;3.13;;;;;;;;;;5057572;28;20464;-82
2023/05/01 01:54:21;;;;;;;8.68;3.30;;;;;;;;;;5064722;28;20427;-82
2023/05/01 01:56:50;;;;;;;7.53;3.55;;;;;;;;;;5060888;28;20420;-82
2023/05/01 01:59:23;;;;;;;9.47;3.77;;;;;;;;;;5060362;28;20427;-83
2023/05/01 02:01:51;;;;;;;8.18;3.42;;;;;;;;;;5059250;28;20434;-82
2023/05/01 02:04:20;;;;;;;8.43;3.17;;;;;;;;;;5062778;28;20914;-83
2023/05/01 02:06:54;;;;;;;7.75;3.53;;;;;;;;;;5057234;28;20431;-82
2023/05/01 02:09:23;;;;;;;7.75;3.47;;;;;;;;;;5060172;28;20431;-83
2023/05/01 02:11:51;;;;;;;7.15;3.25;;;;;;;;;;5055618;28;20436;-82
2023/05/01 02:14:21;;;;;;;8.20;3.50;;;;;;;;;;5061894;28;20423;-82
2023/05/01 02:16:49;;;;;;;10.10;3.47;;;;;;;;;;5059488;28;20438;-81
2023/05/01 02:19:18;;;;;;;8.23;3.42;;;;;;;;;;5057097;28;20422;-80
2023/05/01 02:21:47;;;;;;;8.53;3.43;;;;;;;;;;5058205;28;20530;-82
2023/05/01 02:24:15;;;;;;;10.00;3.33;;;;;;;;;;5056716;28;20424;-81
2023/05/01 02:26:48;;;;;;;7.43;3.50;;;;;;;;;;5057754;28;20433;-80
2023/05/01 02:29:16;;;;;;;9.15;3.42;;;;;;;;;;5054771;28;20910;-81
2023/05/01 02:31:44;;;;;;;9.30;3.53;;;;;;;;;;5057035;28;20436;-81
2023/05/01 02:34:11;;;;;;;7.45;3.40;;;;;;;;;;5069120;28;20434;-80
2023/05/01 02:36:39;;;;;;;7.78;3.67;;;;;;;;;;5062994;28;20876;-81
2023/05/01 02:39:08;;;;;;;9.00;3.70;;;;;;;;;;5061192;28;20922;-81
2023/05/01 02:41:41;;;;;;;8.18;3.65;;;;;;;;;;5069924;28;20412;-81
2023/05/01 02:44:15;;;;;;;7.80;3.60;;;;;;;;;;5059613;28;20429;-81
2023/05/01 02:46:44;;;;;;;10.05;3.70;;;;;;;;;;5063651;28;20411;-83
2023/05/01 02:49:14;;;;;;;11.55;3.90;;;;;;;;;;5066416;28;20865;-81
2023/05/01 02:51:42;;;;;;;9.55;3.83;;;;;;;;;;5059784;28;20424;-81
2023/05/01 02:54:16;;;;;;;9.18;3.80;;;;;;;;;;5066548;28;20437;-81
2023/05/01 02:56:44;;;;;;;8.48;3.60;;;;;;;;;;5061156;28;20891;-82
2023/05/01 02:59:17;;;;;;;9.48;3.45;;;;;;;;;;5061250;28;20425;-81
2023/05/01 03:01:45;;;;;;;8.35;3.60;;;;;;;;;;5064403;28;20754;-82
2023/05/01 03:04:13;;;;;;;8.90;3.63;;;;;;;;;;5064805;28;21069;-81
2023/05/01 03:06:46;;;;;;;7.73;3.73;;;;;;;;;;5063561;28;20427;-82
2023/05/01 03:09:20;;;;;;;8.17;3.53;;;;;;;;;;5068432;28;20431;-82
2023/05/01 03:11:53;;;;;;;8.83;3.60;;;;;;;;;;5063505;28;20463;-82
2023/05/01 03:14:21;;;;;;;8.67;3.77;;;;;;;;;;5080406;28;20427;-81
2023/05/01 03:16:49;;;;;;;7.38;3.50;;;;;;;;;;5067343;28;20763;-82
2023/05/01 03:19:17;;;;;;;9.38;3.67;;;;;;;;;;5076239;28;20413;-81
2023/05/01 03:21:45;;;;;;;8.25;3.60;;;;;;;;;;5062991;28;20419;-81
2023/05/01 03:24:12;;;;;;;9.65;4.05;;;;;;;;;;5067789;28;20412;-83
2023/05/01 03:26:42;;;;;;;9.82;4.55;;;;;;;;;;5057451;28;20429;-81
2023/05/01 03:29:14;;;;;;;8.88;4.65;;;;;;;;;;5068561;28;20417;-82
2023/05/01 03:31:47;;;;;;;7.88;3.80;;;;;;;;;;5062877;28;20423;-82
2023/05/01 03:34:15;;;;;;;9.40;4.60;;;;;;;;;;5064877;28;20933;-81
2023/05/01 03:36:43;;;;;;;9.02;4.05;;;;;;;;;;5064898;28;20424;-81
2023/05/01 03:39:11;;;;;;;9.27;3.80;;;;;;;;;;5065066;28;20425;-81
2023/05/01 03:42:16;;;;;;;7.90;3.85;;;;;;;;;;5080813;28;20526;-81
2023/05/01 03:44:44;;;;;;;6.97;3.40;;;;;;;;;;5059601;28;20437;-84
2023/05/01 03:47:13;;;;;;;8.65;4.13;;;;;;;;;;5064131;28;20424;-81
2023/05/01 03:49:42;;;;;;;8.67;3.83;;;;;;;;;;5064103;28;20452;-81
2023/05/01 03:52:15;;;;;;;10.15;3.70;;;;;;;;;;5061646;28;20424;-83
2023/05/01 03:54:49;;;;;;;8.63;3.30;;;;;;;;;;5060510;28;20964;-83
2023/05/01 03:57:27;;;;;;;7.60;3.50;;;;;;;;;;5060207;28;20446;-82
2023/05/01 03:59:56;;;;;;;7.22;3.47;;;;;;;;;;5071489;28;20768;-81
2023/05/01 04:02:24;;;;;;;7.90;3.60;;;;;;;;;;5058737;28;20436;-82
2023/05/01 04:04:52;;;;;;;7.72;3.33;;;;;;;;;;5067563;28;20431;-81
2023/05/01 04:07:20;;;;;;;8.52;3.50;;;;;;;;;;5063811;28;21145;-83
2023/05/01 04:09:49;;;;;;;9.27;3.20;;;;;;;;;;5062901;28;20419;-81
2023/05/01 04:12:17;;;;;;;8.85;3.55;;;;;;;;;;5065114;28;20438;-83
2023/05/01 04:14:46;;;;;;;10.20;3.70;;;;;;;;;;5063006;28;20425;-81
2023/05/01 04:17:15;;;;;;;9.13;3.38;;;;;;;;;;5065229;28;21212;-81
2023/05/01 04:19:43;;;;;;;6.20;3.20;;;;;;;;;;5060811;28;20511;-82
2023/05/01 04:22:10;;;;;;;8.00;3.50;;;;;;;;;;5061753;28;20428;-81
2023/05/01 04:24:44;;;;;;;7.80;3.28;;;;;;;;;;5062404;28;20419;-81
2023/05/01 04:27:12;;;;;;;7.55;3.33;;;;;;;;;;5059176;28;20439;-82
2023/05/01 04:29:40;;;;;;;6.90;3.30;;;;;;;;;;5062143;28;20424;-81
2023/05/01 04:32:10;;;;;;;8.80;3.22;;;;;;;;;;5064181;28;20444;-82
2023/05/01 04:34:43;;;;;;;8.48;3.35;;;;;;;;;;5061030;28;20428;-80
2023/05/01 04:37:11;;;;;;;7.75;3.40;;;;;;;;;;5059468;28;20420;-82
2023/05/01 04:39:39;;;;;;;9.25;3.35;;;;;;;;;;5059275;28;20425;-83
2023/05/01 04:42:12;;;;;;;7.43;3.40;;;;;;;;;;5064427;28;20423;-81
2023/05/01 04:44:46;;;;;;;9.25;3.70;;;;;;;;;;5057754;28;20877;-82
2023/05/01 04:47:21;;;;;;;7.75;3.40;;;;;;;;;;5058511;28;20437;-81
2023/05/01 04:49:54;;;;;;;8.75;3.40;;;;;;;;;;5061438;28;20420;-81
2023/05/01 04:52:27;;;;;;;7.88;3.30;;;;;;;;;;5063251;28;20419;-81
2023/05/01 04:55:02;;;;;;;9.40;3.40;;;;;;;;;;5055695;28;20421;-81
2023/05/01 04:57:33;;;;;;;7.63;3.42;;;;;;;;;;5075870;28;20414;-81
2023/05/01 05:00:06;;;;;;;7.05;3.42;;;;;;;;;;5058243;28;20444;-83
2023/05/01 05:02:39;;;;;;;8.63;3.43;;;;;;;;;;5059621;28;20440;-81
2023/05/01 05:05:08;;;;;;;10.20;3.53;;;;;;;;;;5056610;28;20426;-82
2023/05/01 05:07:36;;;;;;;8.63;3.30;;;;;;;;;;5060061;28;20421;-82
2023/05/01 05:10:29;;;;;;;6.88;3.30;;;;;;;;;;5057489;28;20421;-81
2023/05/01 05:13:32;;;;;;;9.38;3.40;;;;;;;;;;5049158;28;20921;-81
2023/05/01 05:16:03;;;;;;;9.40;3.40;;;;;;;;;;5056826;28;20423;-81
2023/05/01 05:18:33;;;;;;;7.78;3.45;;;;;;;;;;5058404;28;20430;-81
2023/05/01 05:21:06;;;;;;;8.50;3.33;;;;;;;;;;5057480;28;20916;-82
2023/05/01 05:23:44;;;;;;;9.32;3.90;;;;;;;;;;5054472;28;20457;-82
2023/05/01 05:26:12;;;;;;;12.07;6.47;;;;;;;;;;5055097;28;21133;-82
2023/05/01 05:28:40;;;;;;;13.93;7.32;;;;;;;;;;5057064;28;20420;-82
2023/05/01 05:31:08;;;;;;;10.23;3.90;;;;;;;;;;5054617;28;20417;-81
2023/05/01 05:33:43;;;;;;;8.38;3.60;;;;;;;;;;5062590;28;20450;-81
2023/05/01 05:36:11;;;;;;;8.85;3.33;;;;;;;;;;5057011;28;20449;-81
2023/05/01 05:38:41;;;;;;;8.67;3.40;;;;;;;;;;5067953;28;20438;-81
2023/05/01 05:41:17;;;;;;;7.28;3.22;;;;;;;;;;5059035;28;20420;-82
2023/05/01 05:43:46;;;;;;;6.93;3.15;;;;;;;;;;5064773;28;20427;-81
2023/05/01 05:46:14;;;;;;;7.57;3.38;;;;;;;;;;5060328;28;20439;-81
2023/05/01 05:48:48;;;;;;;7.95;3.40;;;;;;;;;;5058824;28;20424;-81
2023/05/01 05:51:16;;;;;;;10.00;3.67;;;;;;;;;;5053538;28;20433;-80
2023/05/01 05:53:49;;;;;;;9.65;3.53;;;;;;;;;;5057102;28;20424;-81
2023/05/01 05:56:17;;;;;;;9.70;3.63;;;;;;;;;;5056597;28;20431;-81
2023/05/01 05:58:45;;;;;;;7.20;3.47;;;;;;;;;;5053960;28;20425;-81
2023/05/01 06:01:13;;;;;;;7.45;3.38;;;;;;;;;;5053298;28;20436;-81
2023/05/01 06:03:41;;;;;;;7.78;3.30;;;;;;;;;;5054843;28;20772;-82
2023/05/01 06:06:10;;;;;;;6.20;3.22;;;;;;;;;;5056270;28;20429;-82
2023/05/01 06:08:45;;;;;;;9.65;3.90;;;;;;;;;;5057625;28;20425;-81
2023/05/01 06:11:12;;;;;;;10.43;3.80;;;;;;;;;;5051096;28;20421;-81
2023/05/01 06:13:45;;;;;;;7.38;3.80;;;;;;;;;;5053174;28;20455;-81
2023/05/01 06:16:14;;;;;;;8.60;3.75;;;;;;;;;;5058980;28;20432;-81
2023/05/01 06:18:46;;;;;;;9.13;3.83;;;;;;;;;;5052085;28;20455;-82
2023/05/01 06:21:15;;;;;;;7.28;3.50;;;;;;;;;;5058430;28;20448;-81
2023/05/01 06:23:48;;;;;;;10.20;3.50;;;;;;;;;;5059176;28;20468;-81
2023/05/01 06:26:22;;;;;;;8.02;3.47;;;;;;;;;;5053251;28;20421;-82
2023/05/01 06:28:50;;;;;;;8.23;3.30;;;;;;;;;;5052319;28;20512;-82
2023/05/01 06:31:18;;;;;;;8.40;3.65;;;;;;;;;;5059813;28;20439;-81
2023/05/01 06:33:54;;;;;;;8.23;3.25;;;;;;;;;;5053989;28;20421;-80
2023/05/01 06:36:31;;;;;;;8.73;3.58;;;;;;;;;;5054478;28;20435;-81
2023/05/01 06:38:59;;;;;;;7.93;3.40;;;;;;;;;;5057129;28;20430;-80
2023/05/01 06:41:27;;;;;;;8.23;3.37;;;;;;;;;;5058094;28;20506;-82
2023/05/01 06:43:54;;;;;;;7.45;3.35;;;;;;;;;;5051742;28;20423;-80
2023/05/01 06:46:27;;;;;;;7.38;3.30;;;;;;;;;;5069397;28;20427;-81
2023/05/01 06:49:00;;;;;;;9.88;3.40;;;;;;;;;;5061303;28;20434;-81
2023/05/01 06:51:29;;;;;;;8.00;3.20;;;;;;;;;;5061080;28;20432;-80
2023/05/01 06:54:03;;;;;;;9.25;3.47;;;;;;;;;;5061366;28;20437;-81
2023/05/01 06:56:36;;;;;;;8.15;3.30;;;;;;;;;;5056845;28;20436;-80
2023/05/01 06:59:08;;;;;;;8.57;3.30;;;;;;;;;;5054435;28;20922;-80
2023/05/01 07:01:36;;;;;;;12.60;6.17;;;;;;;;;;5051022;28;20440;-82
2023/05/01 07:04:04;;;;;;;7.83;3.63;;;;;;;;;;5057172;28;20521;-80
2023/05/01 07:06:32;;;;;;;11.83;5.30;;;;;;;;;;5059843;28;20433;-81
2023/05/01 07:09:00;;;;;;;8.60;3.42;;;;;;;;;;5052051;28;20432;-80
2023/05/01 07:11:29;;;;;;;8.30;3.20;;;;;;;;;;5051619;28;20941;-81
2023/05/01 07:13:57;;;;;;;7.97;3.28;;;;;;;;;;5055695;28;20423;-82
2023/05/01 07:16:30;;;;;;;9.75;4.10;;;;;;;;;;5056351;28;20424;-82
2023/05/01 07:19:03;;;;;;;6.60;3.00;;;;;;;;;;5057123;28;20441;-84
2023/05/01 07:21:32;;;;;;;12.23;4.90;;;;;;;;;;5062135;28;20442;-81
2023/05/01 07:23:59;;;;;;;6.35;2.72;;;;;;;;;;5065017;28;20439;-81
2023/05/01 07:26:27;;;;;;;6.55;3.10;;;;;;;;;;5056521;28;20433;-80
2023/05/01 07:29:03;;;;;;;10.68;4.03;;;;;;;;;;5058040;28;20424;-84
2023/05/01 07:31:36;;;;;;;12.35;5.88;;;;;;;;;;5055832;28;20425;-82
2023/05/01 07:34:09;;;;;;;10.40;4.55;;;;;;;;;;5057482;28;20779;-82
2023/05/01 07:36:37;;;;;;;7.20;3.17;;;;;;;;;;5056266;28;22307;-81
2023/05/01 07:39:10;;;;;;;9.13;3.10;;;;;;;;;;5056002;28;20424;-81
2023/05/01 07:41:37;;;;;;;7.22;2.75;;;;;;;;;;5060349;28;20943;-82
2023/05/01 07:44:07;;;;;;;8.13;3.22;;;;;;;;;;5057410;28;20768;-81
2023/05/01 07:46:35;;;;;;;7.87;2.90;;;;;;;;;;5056692;28;20468;-84
2023/05/01 07:49:03;;;;;;;8.35;2.85;;;;;;;;;;5062119;28;20428;-87
2023/05/01 07:51:31;;;;;;;6.82;2.50;;;;;;;;;;5057341;28;20436;-82
2023/05/01 07:54:02;;;;;;;7.32;2.72;;;;;;;;;;5057343;28;21099;-82
2023/05/01 07:56:35;;;;;;;7.70;2.97;;;;;;;;;;5059390;28;20464;-82
2023/05/01 07:59:09;;;;;;;6.78;2.75;;;;;;;;;;5052698;28;21390;-84
2023/05/01 08:01:42;;;;;;;8.77;2.90;;;;;;;;;;5059888;28;20422;-83
2023/05/01 08:04:09;;;;;;;8.07;2.97;;;;;;;;;;5058301;28;20432;-81
2023/05/01 08:06:37;;;;;;;7.67;2.80;;;;;;;;;;5060066;28;20425;-83
2023/05/01 08:09:10;;;;;;;7.43;2.80;;;;;;;;;;5055337;28;20944;-82
2023/05/01 08:11:43;;;;;;;9.02;2.88;;;;;;;;;;5059663;28;20429;-82
2023/05/01 08:14:18;;;;;;;6.32;3.28;;;;;;;;;;5059839;28;20440;-81
2023/05/01 08:16:53;;;;;;;8.77;2.80;;;;;;;;;;5054983;28;20450;-82
2023/05/01 08:19:27;;;;;;;6.63;2.40;;;;;;;;;;5058861;28;20436;-81
2023/05/01 08:21:55;;;;;;;6.22;2.70;;;;;;;;;;5054995;28;20430;-81
2023/05/01 08:24:27;;;;;;;7.53;2.78;;;;;;;;;;5057712;28;20433;-83
2023/05/01 08:26:55;;;;;;;5.00;2.30;;;;;;;;;;5059795;28;20904;-82
2023/05/01 08:29:30;;;;;;;6.05;2.70;;;;;;;;;;5054644;28;20436;-85
2023/05/01 08:31:59;;;;;;;9.07;2.75;;;;;;;;;;5063691;28;20427;-87
2023/05/01 08:34:27;;;;;;;6.57;2.63;;;;;;;;;;5060135;28;20448;-84
2023/05/01 08:36:55;;;;;;;6.37;2.40;;;;;;;;;;5064186;28;20779;-82
2023/05/01 08:39:23;;;;;;;6.43;2.72;;;;;;;;;;5059426;28;20904;-86
2023/05/01 08:41:57;;;;;;;6.20;2.60;;;;;;;;;;5056152;28;20440;-85
2023/05/01 08:44:25;;;;;;;8.15;2.50;;;;;;;;;;5055812;28;20437;-83
2023/05/01 08:47:03;;;;;;;5.53;2.65;;;;;;;;;;5055058;28;20452;-82
2023/05/01 08:49:32;;;;;;;7.13;2.60;;;;;;;;;;5047445;28;20439;-81
2023/05/01 08:52:06;;;;;;;8.65;2.55;;;;;;;;;;5051410;28;20427;-82
2023/05/01 08:54:39;;;;;;;6.10;2.60;;;;;;;;;;5041275;28;20436;-81
2023/05/01 08:57:12;;;;;;;5.53;2.50;;;;;;;;;;5043270;28;21762;-82
2023/05/01 08:59:40;;;;;;;6.68;2.50;;;;;;;;;;5038230;28;20435;-83
2023/05/01 09:02:09;;;;;;;6.05;2.63;;;;;;;;;;5042799;28;20427;-82
2023/05/01 09:04:43;;;;;;;6.60;2.70;;;;;;;;;;5049290;28;20772;-83
2023/05/01 09:07:11;;;;;;;8.15;2.78;;;;;;;;;;5054911;28;20463;-83
2023/05/01 09:09:44;;;;;;;6.37;2.70;;;;;;;;;;5044974;28;20438;-82
2023/05/01 09:12:21;;;;;;;7.40;2.83;;;;;;;;;;5038454;28;20420;-82
2023/05/01 09:14:49;;;;;;;7.88;3.00;;;;;;;;;;5045386;28;20433;-82
2023/05/01 09:17:19;;;;;;;7.32;3.15;;;;;;;;;;5045317;28;20452;-81
2023/05/01 09:19:53;;;;;;;6.82;2.88;;;;;;;;;;5042681;28;20454;-82
2023/05/01 09:22:21;;;;;;;7.63;3.03;;;;;;;;;;5046569;28;20423;-83
2023/05/01 09:24:48;;;;;;;9.55;3.17;;;;;;;;;;5046152;28;20439;-82
2023/05/01 09:27:21;;;;;;;8.63;3.10;;;;;;;;;;5042640;28;21263;-81
2023/05/01 09:29:54;;;;;;;6.50;3.00;;;;;;;;;;5044304;28;20428;-81
2023/05/01 09:32:26;;;;;;;6.53;2.97;;;;;;;;;;5041877;28;20435;-81
2023/05/01 09:34:54;;;;;;;7.35;3.00;;;;;;;;;;5042078;28;20446;-83
2023/05/01 09:37:28;;;;;;;8.93;3.22;;;;;;;;;;5045533;28;20423;-82
2023/05/01 09:40:03;;;;;;;7.30;3.10;;;;;;;;;;5044002;28;20432;-82
2023/05/01 09:42:31;;;;;;;7.65;2.72;;;;;;;;;;5043590;28;20424;-83
2023/05/01 09:44:59;;;;;;;6.85;2.90;;;;;;;;;;5054730;28;20439;-83
2023/05/01 09:47:28;;;;;;;7.75;3.10;;;;;;;;;;5052024;28;20408;-84
2023/05/01 09:49:58;;;;;;;7.93;2.90;;;;;;;;;;5047056;28;20440;-82
2023/05/01 09:52:26;;;;;;;7.18;2.85;;;;;;;;;;5051742;28;20420;-82
2023/05/01 09:55:12;;;;;;;9.80;2.93;;;;;;;;;;5045761;28;20424;-82
2023/05/01 09:57:46;;;;;;;7.70;3.10;;;;;;;;;;5036484;28;20420;-82
2023/05/01 10:00:20;;;;;;;8.32;2.80;;;;;;;;;;5036729;28;20443;-83
2023/05/01 10:02:49;;;;;;;6.75;2.80;;;;;;;;;;5037064;28;20431;-81
2023/05/01 10:05:17;;;;;;;8.38;2.85;;;;;;;;;;5035818;28;20439;-83
2023/05/01 10:07:57;;;;;;;6.47;2.83;;;;;;;;;;5042162;28;20419;-83
2023/05/01 10:10:25;;;;;;;7.03;3.03;;;;;;;;;;5046491;28;20436;-83
2023/05/01 10:12:53;;;;;;;6.40;2.70;;;;;;;;;;5040662;28;20454;-83
2023/05/01 10:15:36;;;;;;;7.38;2.67;;;;;;;;;;5038386;28;20442;-81
2023/05/01 10:18:05;;;;;;;5.97;2.50;;;;;;;;;;5037562;28;20656;-81
2023/05/01 10:20:38;;;;;;;6.97;2.33;;;;;;;;;;5041885;28;20434;-80
2023/05/01 10:23:11;;;;;;;6.78;2.95;;;;;;;;;;5039841;28;20431;-81
2023/05/01 10:25:44;;;;;;;5.63;2.40;;;;;;;;;;5040156;28;21225;-81
2023/05/01 10:28:12;;;;;;;8.75;2.60;;;;;;;;;;5039898;28;20415;-81
2023/05/01 10:30:41;;;;;;;6.57;2.42;;;;;;;;;;5035880;28;20886;-80
2023/05/01 10:33:12;;;;;;;7.23;2.40;;;;;;;;;;5040981;28;20428;-81
2023/05/01 10:35:41;;;;;;;6.47;2.35;;;;;;;;;;5038618;28;20428;-82
2023/05/01 10:38:20;;;;;;;4.97;2.50;;;;;;;;;;5042604;28;21112;-82
2023/05/01 10:40:53;;;;;;;8.35;2.58;;;;;;;;;;5033997;28;20443;-80
2023/05/01 10:43:27;;;;;;;5.20;2.50;;;;;;;;;;5030784;28;21159;-81
2023/05/01 10:46:17;;;;;;;6.60;2.60;;;;;;;;;;5034424;28;20419;-84
2023/05/01 10:48:56;;;;;;;6.70;2.60;;;;;;;;;;5049099;28;20430;-83
2023/05/01 10:51:29;;;;;;;6.63;2.45;;;;;;;;;;5034013;28;21179;-82
2023/05/01 10:54:15;;;;;;;7.05;2.50;;;;;;;;;;5036635;28;21092;-82
2023/05/01 10:56:48;;;;;;;6.15;2.53;;;;;;;;;;5037698;28;21759;-82
2023/05/01 10:59:21;;;;;;;5.60;2.40;;;;;;;;;;5040225;28;20462;-83
2023/05/01 11:01:50;;;;;;;7.28;2.33;;;;;;;;;;5038778;28;20427;-80
2023/05/01 11:04:37;;;;;;;4.80;2.08;;;;;;;;;;5039220;28;20502;-84
2023/05/01 11:07:16;;;;;;;6.88;2.40;;;;;;;;;;5038766;28;20431;-80
2023/05/01 11:09:53;;;;;;;7.22;2.33;;;;;;;;;;5028449;28;20450;-82
2023/05/01 11:12:45;;;;;;;5.55;2.00;;;;;;;;;;5037775;28;20935;-82
2023/05/01 11:15:28;;;;;;;4.63;1.85;;;;;;;;;;5045424;28;21336;-80
2023/05/01 11:17:56;;;;;;;6.55;1.90;;;;;;;;;;5058407;28;20431;-79
2023/05/01 11:20:43;;;;;;;5.72;2.08;;;;;;;;;;5056030;28;20425;-80
2023/05/01 11:23:24;;;;;;;4.55;1.95;;;;;;;;;;5059663;28;20435;-80
2023/05/01 11:26:07;;;;;;;5.72;1.95;;;;;;;;;;5058331;28;20430;-80
2023/05/01 11:28:35;;;;;;;6.10;2.10;;;;;;;;;;5060392;28;20428;-80
2023/05/01 11:31:03;;;;;;;6.15;2.00;;;;;;;;;;5056655;28;20505;-81
2023/05/01 11:33:31;;;;;;;5.03;1.92;;;;;;;;;;5056245;28;20874;-81
2023/05/01 11:36:04;;;;;;;6.13;1.92;;;;;;;;;;5062559;28;20433;-81
2023/05/01 11:38:38;;;;;;;6.65;2.17;;;;;;;;;;5057764;28;20456;-81
2023/05/01 11:41:11;;;;;;;4.68;2.10;;;;;;;;;;5057163;28;20421;-80
2023/05/01 11:43:48;;;;;;;4.18;1.92;;;;;;;;;;5058625;28;20481;-80
2023/05/01 11:46:26;;;;;;;6.55;2.22;;;;;;;;;;5057137;28;20427;-81
2023/05/01 11:48:55;;;;;;;7.10;2.50;;;;;;;;;;5056739;28;20914;-81
2023/05/01 11:51:23;;;;;;;5.95;2.30;;;;;;;;;;5052962;28;20421;-81
2023/05/01 11:53:59;;;;;;;5.00;2.20;;;;;;;;;;5052930;28;20444;-79
2023/05/01 11:56:27;;;;;;;5.97;2.30;;;;;;;;;;5056437;28;20417;-80
2023/05/01 11:58:56;;;;;;;8.60;2.53;;;;;;;;;;5056996;28;20917;-80
2023/05/01 12:01:33;;;;;;;5.43;2.30;;;;;;;;;;5052100;28;20784;-79
2023/05/01 12:04:00;;;;;;;6.50;2.60;;;;;;;;;;5045996;28;21739;-81
2023/05/01 12:06:35;;;;;;;5.45;2.63;;;;;;;;;;5035562;28;20431;-82
2023/05/01 12:09:09;;;;;;;6.33;2.53;;;;;;;;;;5032133;28;20483;-80
2023/05/01 12:11:38;;;;;;;6.85;2.40;;;;;;;;;;5036054;28;20425;-80
2023/05/01 12:14:06;;;;;;;5.85;2.38;;;;;;;;;;5044079;28;20435;-80
2023/05/01 12:16:34;;;;;;;4.80;2.30;;;;;;;;;;5048808;28;21354;-79
2023/05/01 12:19:02;;;;;;;7.65;2.58;;;;;;;;;;5045472;28;20426;-81
2023/05/01 12:21:36;;;;;;;7.50;2.80;;;;;;;;;;5044166;28;20432;-80
2023/05/01 12:24:09;;;;;;;5.88;2.65;;;;;;;;;;5044675;28;20425;-79
2023/05/01 12:26:42;;;;;;;5.75;2.60;;;;;;;;;;5038499;28;20426;-78
2023/05/01 12:29:10;;;;;;;6.00;2.70;;;;;;;;;;5043606;28;20447;-79
2023/05/01 12:31:45;;;;;;;7.22;2.70;;;;;;;;;;5039554;28;20434;-78
2023/05/01 12:34:13;;;;;;;6.88;2.53;;;;;;;;;;5039156;28;20427;-80
2023/05/01 12:36:52;;;;;;;5.85;2.47;;;;;;;;;;5036633;28;20433;-81
2023/05/01 12:39:22;;;;;;;5.80;2.50;;;;;;;;;;5034012;28;21764;-79
2023/05/01 12:41:55;;;;;;;6.53;2.47;;;;;;;;;;5031531;28;20439;-79
2023/05/01 12:44:29;;;;;;;6.82;2.70;;;;;;;;;;5037377;28;20428;-80
2023/05/01 12:47:03;;;;;;;8.45;3.03;;;;;;;;;;5042151;28;20436;-79
2023/05/01 12:49:36;;;;;;;6.93;2.70;;;;;;;;;;5034270;28;21074;-81
2023/05/01 12:52:09;;;;;;;5.90;2.70;;;;;;;;;;5039648;28;20425;-80
2023/05/01 12:54:43;;;;;;;5.80;2.50;;;;;;;;;;5034380;28;20455;-79
2023/05/01 12:57:13;;;;;;;5.57;2.30;;;;;;;;;;5037030;28;20431;-78
2023/05/01 12:59:48;;;;;;;6.53;2.30;;;;;;;;;;5035453;28;20436;-80
2023/05/01 13:02:29;;;;;;;6.55;2.63;;;;;;;;;;5034026;28;20420;-79
2023/05/01 13:05:05;;;;;;;7.55;2.63;;;;;;;;;;5037703;28;21352;-79
2023/05/01 13:07:39;;;;;;;5.90;2.63;;;;;;;;;;5035164;28;20424;-80
2023/05/01 13:10:10;;;;;;;6.60;2.58;;;;;;;;;;5036285;28;22124;-81
2023/05/01 13:12:43;;;;;;;7.07;2.60;;;;;;;;;;5032377;28;21084;-82
2023/05/01 13:15:19;;;;;;;5.93;2.53;;;;;;;;;;5032321;28;20434;-81
2023/05/01 13:17:52;;;;;;;7.18;2.70;;;;;;;;;;5029236;28;20427;-79
2023/05/01 13:20:26;;;;;;;6.05;2.80;;;;;;;;;;5032343;28;20456;-80
2023/05/01 13:22:54;;;;;;;8.05;2.70;;;;;;;;;;5038349;28;20438;-80
2023/05/01 13:25:28;;;;;;;8.27;3.55;;;;;;;;;;5031409;28;20431;-81
2023/05/01 13:27:56;;;;;;;8.68;3.08;;;;;;;;;;5028532;28;20436;-79
2023/05/01 13:30:31;;;;;;;6.22;2.50;;;;;;;;;;5037760;28;20424;-81
2023/05/01 13:32:59;;;;;;;9.13;2.95;;;;;;;;;;5036991;28;20427;-80
2023/05/01 13:35:32;;;;;;;7.97;3.00;;;;;;;;;;5032141;28;20427;-80
2023/05/01 13:38:00;;;;;;;6.38;2.90;;;;;;;;;;5029699;28;20426;-81
2023/05/01 13:40:34;;;;;;;6.57;2.70;;;;;;;;;;5031411;28;20446;-79
2023/05/01 13:43:02;;;;;;;8.80;2.90;;;;;;;;;;5035152;28;20428;-79
2023/05/01 13:45:35;;;;;;;7.90;2.90;;;;;;;;;;5031752;28;20800;-77
2023/05/01 13:48:04;;;;;;;5.18;2.50;;;;;;;;;;5034889;28;20431;-79
2023/05/01 13:50:34;;;;;;;6.93;3.10;;;;;;;;;;5041028;28;20427;-80
2023/05/01 13:53:01;;;;;;;5.75;2.65;;;;;;;;;;5040061;28;20436;-79
2023/05/01 13:55:39;;;;;;;8.43;2.83;;;;;;;;;;5038743;28;20509;-79
2023/05/01 13:58:07;;;;;;;5.80;2.70;;;;;;;;;;5041310;28;20930;-79
2023/05/01 14:00:35;;;;;;;7.28;2.80;;;;;;;;;;5038484;28;20432;-79
2023/05/01 14:03:10;;;;;;;5.63;2.58;;;;;;;;;;5045866;28;20431;-79
2023/05/01 14:05:43;;;;;;;7.53;3.03;;;;;;;;;;5037059;28;20430;-80
2023/05/01 14:08:11;;;;;;;7.50;2.90;;;;;;;;;;5040676;28;20423;-80
2023/05/01 14:10:46;;;;;;;7.15;2.80;;;;;;;;;;5039283;28;20431;-79
2023/05/01 14:13:16;;;;;;;9.47;3.20;;;;;;;;;;5032227;28;20417;-79
2023/05/01 14:15:49;;;;;;;6.70;2.60;;;;;;;;;;5028296;28;20481;-80
2023/05/01 14:18:17;;;;;;;6.88;2.80;;;;;;;;;;5039306;28;20435;-80
2023/05/01 14:20:46;;;;;;;6.43;2.90;;;;;;;;;;5036948;28;20431;-80
2023/05/01 14:23:21;;;;;;;7.30;2.67;;;;;;;;;;5031843;28;20436;-80
2023/05/01 14:25:50;;;;;;;6.10;2.50;;;;;;;;;;5052453;28;20440;-80
2023/05/01 14:28:24;;;;;;;6.05;2.40;;;;;;;;;;5037086;28;20438;-81
2023/05/01 14:30:56;;;;;;;7.75;2.70;;;;;;;;;;5038631;28;20458;-80
2023/05/01 14:33:30;;;;;;;6.28;2.80;;;;;;;;;;5035154;28;20435;-79
2023/05/01 14:36:02;;;;;;;5.32;2.50;;;;;;;;;;5038263;28;20433;-79
2023/05/01 14:38:38;;;;;;;7.85;2.60;;;;;;;;;;5033519;28;20431;-80
2023/05/01 14:41:10;;;;;;;6.15;2.70;;;;;;;;;;5038442;28;20423;-79
2023/05/01 14:43:40;;;;;;;6.90;2.55;;;;;;;;;;5038331;28;22075;-81
2023/05/01 14:46:14;;;;;;;6.13;2.50;;;;;;;;;;5036165;28;20426;-80
2023/05/01 14:48:42;;;;;;;5.65;2.83;;;;;;;;;;5029473;28;20432;-80
2023/05/01 14:51:11;;;;;;;5.90;2.33;;;;;;;;;;5032716;28;20458;-80
2023/05/01 14:53:43;;;;;;;7.10;2.83;;;;;;;;;;5038235;28;20604;-80
2023/05/01 14:56:17;;;;;;;6.15;2.60;;;;;;;;;;5046988;28;20423;-82
2023/05/01 14:58:46;;;;;;;5.00;2.20;;;;;;;;;;5036585;28;20451;-80
2023/05/01 15:01:18;;;;;;;4.53;1.98;;;;;;;;;;5040727;28;20757;-83
2023/05/01 15:03:46;;;;;;;4.25;2.13;;;;;;;;;;5035451;28;20443;-81
2023/05/01 15:06:19;;;;;;;4.60;2.10;;;;;;;;;;5039766;28;21045;-79
2023/05/01 15:08:47;;;;;;;4.53;1.95;;;;;;;;;;5034951;28;20426;-80
2023/05/01 15:11:16;;;;;;;5.40;2.17;;;;;;;;;;5037144;28;21454;-81